Birch 4 — VREG7 — position and weather

sailwx.info

Track history (hours):
 
Tides and Currents Weather Stations Pressure Air Temp Water Temp Dewpoint Dewpoint Depression Visibility Wind Speed Wind Dir Waves Ship Positions

Birch 4

Last reported at 2014-Dec-13 03:30 UTC. Time now 2014-Dec-18 14:26 UTC.
Position N 36°37' E 023°27'.

Length 160 m; draft 9.7 m.

Type: Ship. MMSI: 477111100.

Date/timePositionNaut miles runAvg speedWind from/ knotsBaromVisibWave heightAir tempDewpointWater temp
2014-Dec-13 03:30N 36°37' E 023°27'1211.2
2014-Dec-13 02:25N 36°49' E 023°32'1611.6
2014-Dec-13 01:03N 37°03' E 023°40'3011.5
2014-Dec-12 22:24N 37°33' E 023°45'911.2
2014-Dec-12 21:33N 37°42' E 023°41'1110.8
2014-Dec-12 20:33N 37°52' E 023°34'1 1.2
2014-Dec-12 19:30N 37°52' E 023°33'0 0.0
2014-Dec-12 18:33N 37°52' E 023°33'0 0.0
2014-Dec-12 17:33N 37°52' E 023°33'0 0.0
2014-Dec-12 16:33N 37°52' E 023°33'0 0.0
2014-Dec-12 15:33N 37°52' E 023°33'0 0.0
2014-Dec-12 14:33N 37°52' E 023°33'0 0.0
2014-Dec-12 13:33N 37°52' E 023°33'2 2.3
2014-Dec-12 12:33N 37°52' E 023°36'7 7.2
2014-Dec-12 11:33N 37°47' E 023°42'9 9.3
2014-Dec-12 10:33N 37°38' E 023°47'1010.2
2014-Dec-12 09:32N 37°36' E 024°00'1211.9
2014-Dec-12 08:29N 37°41' E 024°14'1513.1
2014-Dec-12 07:23N 37°51' E 024°28'2312.4
2014-Dec-12 05:32N 38°09' E 024°45'1211.5
2014-Dec-12 04:30N 38°20' E 024°51'265 8.7
2014-Dec-10 22:04N 41°17' E 029°09'3 6.1
2014-Dec-10 21:33N 41°20' E 029°09'8 8.0
2014-Dec-10 20:33N 41°26' E 029°18'6 6.4
2014-Dec-10 19:33N 41°31' E 029°22'0 0.4
2014-Dec-10 18:32N 41°31' E 029°22'1 1.2
2014-Dec-10 17:32N 41°29' E 029°22'2 1.7
2014-Dec-10 16:23N 41°31' E 029°20'1 1.5
2014-Dec-10 15:33N 41°31' E 029°18'3 3.3
2014-Dec-10 14:33N 41°28' E 029°20'1 0.9
2014-Dec-10 13:30N 41°29' E 029°19'3 0.9
2014-Dec-10 10:29N 41°30' E 029°16'7 7.1
2014-Dec-10 09:32N 41°24' E 029°19'1 0.9
2014-Dec-10 08:33N 41°23' E 029°18'2 1.7
2014-Dec-10 07:32N 41°25' E 029°17'2 2.0
2014-Dec-10 06:33N 41°26' E 029°16'2 1.8
2014-Dec-10 05:33N 41°28' E 029°16'2 1.7
2014-Dec-10 04:32N 41°30' E 029°16'4 3.1
2014-Dec-10 03:19N 41°26' E 029°16'1 0.2
2014-Dec-09 19:24N 41°26' E 029°14'1 1.4
2014-Dec-09 18:28N 41°27' E 029°13'4 4.1
2014-Dec-09 17:31N 41°23' E 029°16'1 1.3
2014-Dec-09 16:33N 41°22' E 029°15'1 1.1
2014-Dec-09 15:33N 41°23' E 029°14'1 1.1
2014-Dec-09 14:32N 41°24' E 029°14'1 1.2
2014-Dec-09 13:32N 41°25' E 029°13'1 1.1
2014-Dec-09 12:33N 41°26' E 029°12'1 1.4
2014-Dec-09 11:33N 41°26' E 029°14'10 9.5
2014-Dec-09 10:33N 41°35' E 029°15'1211.8
2014-Dec-09 09:33N 41°47' E 029°18'1211.6
2014-Dec-09 08:32N 41°59' E 029°21'267 6.6
2014-Dec-07 16:10N 46°19' E 030°40'0 0.0
2014-Dec-07 14:07N 46°19' E 030°40'0 0.0
2014-Dec-07 13:31N 46°19' E 030°40'0 0.0
2014-Dec-07 12:07N 46°19' E 030°40'0 0.0
2014-Dec-07 07:31N 46°19' E 030°40'0 0.0
2014-Dec-07 00:10N 46°19' E 030°40'0 0.0
2014-Dec-06 23:31N 46°19' E 030°40'0 0.0
2014-Dec-06 22:28N 46°19' E 030°40'0 0.0
2014-Dec-06 21:28N 46°19' E 030°40'0 0.0
2014-Dec-06 20:28N 46°19' E 030°40'0 0.0
2014-Dec-06 12:16N 46°19' E 030°40'0 0.0
2014-Dec-06 11:28N 46°19' E 030°40'0 0.0
2014-Dec-06 03:31N 46°19' E 030°40'0 0.0
2014-Dec-06 01:31N 46°19' E 030°40'0 0.0
2014-Dec-05 07:11N 46°19' E 030°40'4 5.1
2014-Dec-05 06:28N 46°18' E 030°45'7 7.4
2014-Dec-05 05:29N 46°17' E 030°56'13 9.5
2014-Dec-05 04:08N 46°08' E 031°09'6 9.2
2014-Dec-05 03:30N 46°03' E 031°11'10 9.6
2014-Dec-05 02:29N 45°53' E 031°12'261 6.1
2014-Dec-03 07:21N 41°41' E 029°34'5 5.8
2014-Dec-03 06:25N 41°37' E 029°30'5 6.4
2014-Dec-03 05:33N 41°33' E 029°25'7 7.4
2014-Dec-03 04:33N 41°26' E 029°20'7 6.5
2014-Dec-03 03:33N 41°21' E 029°15'  
Track history (hours):
 
Tides and Currents Weather Stations Pressure Air Temp Water Temp Dewpoint Dewpoint Depression Visibility Wind Speed Wind Dir Waves Ship Positions

Birch 4

Last reported at 2014-Dec-13 03:30 UTC. Time now 2014-Dec-18 14:26 UTC.
Position N 36°37' E 023°27'.

Length 160 m; draft 9.7 m.

Type: Ship. MMSI: 477111100.

Date/timePositionNaut miles runAvg speedWind from/ knotsBaromVisibWave heightAir tempDewpointWater temp
2014-Dec-13 03:30N 36°37' E 023°27'1211.2
2014-Dec-13 02:25N 36°49' E 023°32'1611.6
2014-Dec-13 01:03N 37°03' E 023°40'3011.5
2014-Dec-12 22:24N 37°33' E 023°45'911.2
2014-Dec-12 21:33N 37°42' E 023°41'1110.8
2014-Dec-12 20:33N 37°52' E 023°34'1 1.2
2014-Dec-12 19:30N 37°52' E 023°33'0 0.0
2014-Dec-12 18:33N 37°52' E 023°33'0 0.0
2014-Dec-12 17:33N 37°52' E 023°33'0 0.0
2014-Dec-12 16:33N 37°52' E 023°33'0 0.0
2014-Dec-12 15:33N 37°52' E 023°33'0 0.0
2014-Dec-12 14:33N 37°52' E 023°33'0 0.0
2014-Dec-12 13:33N 37°52' E 023°33'2 2.3
2014-Dec-12 12:33N 37°52' E 023°36'7 7.2
2014-Dec-12 11:33N 37°47' E 023°42'9 9.3
2014-Dec-12 10:33N 37°38' E 023°47'1010.2
2014-Dec-12 09:32N 37°36' E 024°00'1211.9
2014-Dec-12 08:29N 37°41' E 024°14'1513.1
2014-Dec-12 07:23N 37°51' E 024°28'2312.4
2014-Dec-12 05:32N 38°09' E 024°45'1211.5
2014-Dec-12 04:30N 38°20' E 024°51'265 8.7
2014-Dec-10 22:04N 41°17' E 029°09'3 6.1
2014-Dec-10 21:33N 41°20' E 029°09'8 8.0
2014-Dec-10 20:33N 41°26' E 029°18'6 6.4
2014-Dec-10 19:33N 41°31' E 029°22'0 0.4
2014-Dec-10 18:32N 41°31' E 029°22'1 1.2
2014-Dec-10 17:32N 41°29' E 029°22'2 1.7
2014-Dec-10 16:23N 41°31' E 029°20'1 1.5
2014-Dec-10 15:33N 41°31' E 029°18'3 3.3
2014-Dec-10 14:33N 41°28' E 029°20'1 0.9
2014-Dec-10 13:30N 41°29' E 029°19'3 0.9
2014-Dec-10 10:29N 41°30' E 029°16'7 7.1
2014-Dec-10 09:32N 41°24' E 029°19'1 0.9
2014-Dec-10 08:33N 41°23' E 029°18'2 1.7
2014-Dec-10 07:32N 41°25' E 029°17'2 2.0
2014-Dec-10 06:33N 41°26' E 029°16'2 1.8
2014-Dec-10 05:33N 41°28' E 029°16'2 1.7
2014-Dec-10 04:32N 41°30' E 029°16'4 3.1
2014-Dec-10 03:19N 41°26' E 029°16'1 0.2
2014-Dec-09 19:24N 41°26' E 029°14'1 1.4
2014-Dec-09 18:28N 41°27' E 029°13'4 4.1
2014-Dec-09 17:31N 41°23' E 029°16'1 1.3
2014-Dec-09 16:33N 41°22' E 029°15'1 1.1
2014-Dec-09 15:33N 41°23' E 029°14'1 1.1
2014-Dec-09 14:32N 41°24' E 029°14'1 1.2
2014-Dec-09 13:32N 41°25' E 029°13'1 1.1
2014-Dec-09 12:33N 41°26' E 029°12'1 1.4
2014-Dec-09 11:33N 41°26' E 029°14'10 9.5
2014-Dec-09 10:33N 41°35' E 029°15'1211.8
2014-Dec-09 09:33N 41°47' E 029°18'1211.6
2014-Dec-09 08:32N 41°59' E 029°21'267 6.6
2014-Dec-07 16:10N 46°19' E 030°40'0 0.0
2014-Dec-07 14:07N 46°19' E 030°40'0 0.0
2014-Dec-07 13:31N 46°19' E 030°40'0 0.0
2014-Dec-07 12:07N 46°19' E 030°40'0 0.0
2014-Dec-07 07:31N 46°19' E 030°40'0 0.0
2014-Dec-07 00:10N 46°19' E 030°40'0 0.0
2014-Dec-06 23:31N 46°19' E 030°40'0 0.0
2014-Dec-06 22:28N 46°19' E 030°40'0 0.0
2014-Dec-06 21:28N 46°19' E 030°40'0 0.0
2014-Dec-06 20:28N 46°19' E 030°40'0 0.0
2014-Dec-06 12:16N 46°19' E 030°40'0 0.0
2014-Dec-06 11:28N 46°19' E 030°40'0 0.0
2014-Dec-06 03:31N 46°19' E 030°40'0 0.0
2014-Dec-06 01:31N 46°19' E 030°40'0 0.0
2014-Dec-05 07:11N 46°19' E 030°40'4 5.1
2014-Dec-05 06:28N 46°18' E 030°45'7 7.4
2014-Dec-05 05:29N 46°17' E 030°56'13 9.5
2014-Dec-05 04:08N 46°08' E 031°09'6 9.2
2014-Dec-05 03:30N 46°03' E 031°11'10 9.6
2014-Dec-05 02:29N 45°53' E 031°12'261 6.1
2014-Dec-03 07:21N 41°41' E 029°34'5 5.8
2014-Dec-03 06:25N 41°37' E 029°30'5 6.4
2014-Dec-03 05:33N 41°33' E 029°25'7 7.4
2014-Dec-03 04:33N 41°26' E 029°20'7 6.5
2014-Dec-03 03:33N 41°21' E 029°15'  

Dump ship's entire track history